Time;durP1;ratioP1;P1;durP2;ratioP2;P2;SDS_P1;SDS_P2;PMS_P1;PMS_P2;Temp;Humidity;BMP_temperature;BMP_pressure;BME280_temperature;BME280_humidity;BME280_pressure;Samples;Min_cycle;Max_cycle;Signal;HPM_P1;HPM_P2
2021/07/12 00:00:30;;;;;;;8.38;6.68;;;18.80;99.90;;;18.24;100.00;100610.19;2845035;22;107355;-88
2021/07/12 00:03:07;;;;;;;8.95;5.20;;;18.20;99.90;;;18.27;100.00;100611.69;2934376;22;106711;-88
2021/07/12 00:05:35;;;;;;;6.70;5.72;;;17.30;99.90;;;18.25;100.00;100603.75;3361834;22;107281;-89
2021/07/12 00:08:03;;;;;;;8.07;5.85;;;17.80;99.90;;;18.26;100.00;100612.72;3566615;22;107747;31
2021/07/12 00:10:33;;;;;;;6.93;5.32;;;17.80;99.90;;;18.16;100.00;100596.84;2488769;22;108210;-89
2021/07/12 00:13:04;;;;;;;9.70;6.20;;;17.30;99.90;;;18.13;100.00;100597.22;2720605;22;107271;-93
2021/07/12 00:15:33;;;;;;;9.05;7.15;;;17.70;99.90;;;18.18;100.00;100592.03;3524894;22;106719;-88
2021/07/12 00:18:41;;;;;;;8.07;5.88;;;18.80;99.90;;;18.12;100.00;100587.44;2616943;22;107311;-90
2021/07/12 00:21:18;;;;;;;8.45;7.07;;;17.70;99.90;;;18.14;100.00;100587.22;2662224;22;106634;-90
2021/07/12 00:24:23;;;;;;;8.68;6.38;;;16.70;99.90;;;18.04;100.00;100590.31;3672872;22;106025;31
2021/07/12 00:27:38;;;;;;;7.93;6.30;;;17.60;99.90;;;18.01;100.00;100593.41;3228474;22;107568;-89
2021/07/12 00:30:17;;;;;;;9.82;6.75;;;17.90;99.90;;;18.04;100.00;100589.47;2257968;22;107360;31
2021/07/12 00:32:50;;;;;;;9.27;6.63;;;17.60;99.90;;;18.06;100.00;100590.09;3025282;22;105498;-90
2021/07/12 00:35:21;;;;;;;7.22;6.07;;;17.60;99.90;;;18.09;100.00;100593.22;3336473;22;107644;-92
2021/07/12 00:37:52;;;;;;;9.23;6.95;;;18.60;99.90;;;18.07;100.00;100583.63;3536877;22;104889;-93
2021/07/12 00:40:24;;;;;;;7.93;6.53;;;18.70;99.90;;;18.02;100.00;100584.25;3290729;22;107431;-86
2021/07/12 00:43:24;;;;;;;6.85;5.93;;;18.80;99.90;;;18.03;100.00;100579.66;3030105;22;107030;-90
2021/07/12 00:45:53;;;;;;;10.15;7.05;;;17.70;99.90;;;17.99;100.00;100573.81;2983089;22;107160;31
2021/07/12 00:48:24;;;;;;;11.70;8.13;;;18.10;99.90;;;17.93;100.00;100577.28;2693824;22;107752;-93
2021/07/12 00:53:20;;;;;;;8.90;7.03;;;17.60;99.90;;;17.88;100.00;100567.09;3409175;22;106114;-89
2021/07/12 00:55:53;;;;;;;8.27;5.93;;;17.60;99.90;;;17.86;100.00;100565.59;3200081;22;107269;31
2021/07/12 00:58:58;;;;;;;6.72;5.97;;;17.60;99.90;;;17.87;100.00;100560.00;3237612;22;109335;-90
2021/07/12 01:04:24;;;;;;;8.80;7.00;;;17.50;99.90;;;17.86;100.00;100544.78;2519795;22;106960;-90
2021/07/12 01:06:56;;;;;;;7.65;6.13;;;17.50;99.90;;;17.86;100.00;100541.25;3655049;22;107204;-85
2021/07/12 01:10:03;;;;;;;7.20;5.68;;;17.60;99.90;;;17.84;100.00;100538.72;3267965;22;107906;31
2021/07/12 01:13:35;;;;;;;5.95;5.30;;;17.50;99.90;;;17.87;100.00;100532.09;2688644;22;107252;-89
2021/07/12 01:16:32;;;;;;;11.15;6.60;;;17.50;99.90;;;17.89;100.00;100536.28;3654896;22;108049;-89
2021/07/12 01:19:24;;;;;;;8.15;6.13;;;17.60;99.90;;;17.85;100.00;100539.56;3528929;22;107096;-88
2021/07/12 01:22:47;;;;;;;8.13;5.93;;;16.70;99.90;;;17.82;100.00;100538.09;3075030;22;107385;31
2021/07/12 01:26:21;;;;;;;9.15;6.97;;;17.60;99.90;;;17.82;100.00;100537.25;3096290;22;107633;-89
2021/07/12 01:29:17;;;;;;;8.52;6.40;;;17.50;99.90;;;17.77;100.00;100537.03;2885773;22;107358;-88
2021/07/12 01:32:46;;;;;;;8.43;5.55;;;17.60;99.90;;;17.74;100.00;100532.00;2796896;22;107193;-87
2021/07/12 01:35:30;;;;;;;8.00;5.93;;;17.50;99.90;;;17.71;100.00;100527.00;2842948;22;107389;31
2021/07/12 01:38:15;;;;;;;7.68;5.30;;;17.50;99.90;;;17.69;100.00;100529.03;2344016;22;107030;-89
2021/07/12 01:41:16;;;;;;;5.50;4.60;;;17.50;99.90;;;17.64;100.00;100531.53;2262593;22;104973;-92
2021/07/12 01:44:06;;;;;;;7.57;5.55;;;17.40;99.90;;;17.48;100.00;100527.22;2396616;22;107555;-89
2021/07/12 01:46:56;;;;;;;6.82;5.10;;;17.40;99.90;;;17.53;100.00;100535.59;3517376;22;105276;-91
2021/07/12 01:49:36;;;;;;;8.30;5.43;;;16.40;99.90;;;17.51;100.00;100532.25;3293411;22;106144;-89
2021/07/12 01:52:15;;;;;;;7.35;5.53;;;18.30;99.90;;;17.52;100.00;100533.91;2965496;22;107243;-90
2021/07/12 01:55:00;;;;;;;6.32;5.32;;;17.40;99.90;;;17.51;100.00;100532.25;2361578;22;106033;-91
2021/07/12 01:57:34;;;;;;;6.63;5.45;;;17.20;99.90;;;17.44;100.00;100534.88;2968471;22;105883;-91
2021/07/12 02:00:12;;;;;;;6.18;4.75;;;17.80;99.90;;;17.48;100.00;100533.47;2709729;22;109897;-92
2021/07/12 02:02:55;;;;;;;8.23;6.13;;;17.10;99.90;;;17.40;100.00;100540.91;3587539;22;107065;-89
2021/07/12 02:05:40;;;;;;;5.88;4.50;;;18.00;99.90;;;17.33;100.00;100534.59;3366127;22;106965;-90
2021/07/12 02:08:20;;;;;;;7.25;5.75;;;18.10;99.90;;;17.33;100.00;100526.47;2584661;22;107066;-89
2021/07/12 02:10:59;;;;;;;7.82;5.45;;;18.00;99.90;;;17.30;100.00;100516.91;2617460;22;107305;-90
2021/07/12 02:14:13;;;;;;;6.50;4.60;;;16.90;99.90;;;17.21;100.00;100513.50;3109257;22;108037;-91
2021/07/12 02:16:57;;;;;;;5.55;4.88;;;17.60;99.90;;;17.21;100.00;100515.34;1921971;22;106785;-93
2021/07/12 02:19:32;;;;;;;7.38;5.53;;;16.90;99.90;;;17.18;100.00;100510.38;3197984;22;106618;-89
2021/07/12 02:22:05;;;;;;;6.15;5.28;;;17.40;99.90;;;17.18;100.00;100513.88;2196943;22;105637;-90
2021/07/12 02:24:50;;;;;;;5.88;5.22;;;16.80;99.90;;;17.10;100.00;100519.44;3634103;22;105123;-91
2021/07/12 02:27:22;;;;;;;6.35;5.43;;;16.70;99.90;;;17.12;100.00;100513.84;3190878;22;106737;31
2021/07/12 02:29:54;;;;;;;10.60;5.85;;;16.70;99.90;;;17.17;100.00;100523.03;3732648;22;105937;-89
2021/07/12 02:34:57;;;;;;;6.65;5.13;;;15.80;99.90;;;17.22;100.00;100522.44;3619136;22;107294;-93
2021/07/12 02:37:29;;;;;;;6.70;5.75;;;16.60;99.90;;;17.10;100.00;100527.53;3517333;22;107527;-92
2021/07/12 02:40:39;;;;;;;9.80;6.70;;;17.20;99.90;;;17.09;100.00;100535.84;3079375;22;107023;-93
2021/07/12 02:43:59;;;;;;;10.90;6.25;;;17.20;99.90;;;17.04;100.00;100532.91;1843780;22;107130;-91
2021/07/12 02:46:38;;;;;;;7.93;5.28;;;16.50;99.90;;;16.85;100.00;100532.50;3163935;22;107590;-91
2021/07/12 02:49:09;;;;;;;9.55;6.10;;;16.90;99.90;;;16.92;100.00;100520.94;3620458;22;106290;-91
2021/07/12 02:51:46;;;;;;;7.53;5.72;;;15.60;99.90;;;17.01;100.00;100519.75;3336394;22;105854;-90
2021/07/12 02:54:23;;;;;;;8.80;6.28;;;16.40;99.90;;;16.97;100.00;100513.06;3112126;22;108153;-90
2021/07/12 02:56:56;;;;;;;9.60;6.65;;;16.50;99.90;;;16.84;100.00;100508.38;3373836;22;106392;-92
2021/07/12 02:59:31;;;;;;;7.10;4.97;;;16.40;99.90;;;16.72;100.00;100516.16;3629201;22;104865;-93
2021/07/12 03:02:00;;;;;;;8.07;6.35;;;16.50;99.90;;;16.79;100.00;100529.75;3473386;22;107123;31
2021/07/12 03:04:29;;;;;;;8.63;6.03;;;16.40;99.90;;;16.76;100.00;100533.66;3340729;22;105577;-92
2021/07/12 03:07:21;;;;;;;8.40;6.82;;;16.80;99.90;;;16.83;100.00;100534.56;2360252;22;107330;-91
2021/07/12 03:10:33;;;;;;;8.85;5.43;;;16.40;99.90;;;16.81;100.00;100535.81;3218697;22;105703;-91
2021/07/12 03:13:25;;;;;;;8.20;5.55;;;17.10;99.90;;;16.85;100.00;100540.63;2828998;22;105156;-91
2021/07/12 03:15:56;;;;;;;10.75;5.65;;;16.90;99.90;;;16.81;100.00;100546.63;3368110;22;106371;-92
2021/07/12 03:18:30;;;;;;;7.38;5.43;;;16.30;99.90;;;16.77;100.00;100551.56;3644539;22;107208;-92
2021/07/12 03:21:27;;;;;;;8.18;5.95;;;16.30;99.90;;;16.66;100.00;100551.22;1955937;22;107627;-92
2021/07/12 03:24:03;;;;;;;7.78;6.38;;;16.20;99.90;;;16.58;100.00;100551.28;3702647;22;102110;-93
2021/07/12 03:26:45;;;;;;;10.52;5.65;;;16.30;99.90;;;16.62;100.00;100556.16;3664515;22;106973;-92
2021/07/12 03:29:15;;;;;;;9.00;6.55;;;15.60;99.90;;;16.60;100.00;100552.78;3614807;22;107263;31
2021/07/12 03:31:45;;;;;;;9.18;5.88;;;17.30;99.90;;;16.56;100.00;100558.78;3289917;22;107394;-93
2021/07/12 03:34:19;;;;;;;8.48;6.78;;;16.30;99.90;;;16.57;100.00;100565.84;3711837;22;105353;31
2021/07/12 03:36:51;;;;;;;6.35;4.55;;;16.30;99.90;;;16.57;100.00;100571.25;3612633;22;107171;-92
2021/07/12 03:39:24;;;;;;;6.70;4.85;;;17.20;99.90;;;16.71;100.00;100581.19;3756839;22;101764;31
2021/07/12 03:42:30;;;;;;;9.05;5.80;;;16.40;99.90;;;16.66;100.00;100580.94;3591922;22;105445;-92
2021/07/12 03:45:13;;;;;;;6.57;5.38;;;16.40;99.90;;;16.85;100.00;100585.72;2985195;22;107623;-92
2021/07/12 03:47:43;;;;;;;7.22;5.35;;;16.50;99.90;;;16.79;100.00;100581.09;1857428;22;107815;-92
2021/07/12 03:50:18;;;;;;;6.43;5.32;;;16.50;99.90;;;16.85;100.00;100573.03;3104661;22;105396;-92
2021/07/12 03:52:53;;;;;;;5.55;4.55;;;17.60;99.90;;;17.01;100.00;100576.53;3437031;22;105929;-92
2021/07/12 03:56:00;;;;;;;4.65;3.95;;;16.60;99.90;;;16.94;100.00;100571.03;3419390;22;105515;-92
2021/07/12 03:58:40;;;;;;;6.82;5.28;;;17.00;99.90;;;16.91;100.00;100570.63;3600234;22;108372;-92
2021/07/12 04:01:17;;;;;;;7.85;5.32;;;16.70;99.90;;;17.05;100.00;100564.31;3505359;22;105594;-92
2021/07/12 04:03:49;;;;;;;5.85;4.57;;;17.80;99.90;;;17.12;100.00;100563.34;3540934;22;105306;-91
2021/07/12 04:06:19;;;;;;;6.75;4.70;;;16.80;99.90;;;17.10;100.00;100559.16;3628425;22;106491;31
2021/07/12 04:08:49;;;;;;;5.93;4.45;;;17.10;99.90;;;17.12;100.00;100555.22;3680845;22;104746;31
2021/07/12 04:11:55;;;;;;;5.10;3.90;;;16.10;99.90;;;17.15;100.00;100554.84;3437341;22;106921;31
2021/07/12 04:15:09;;;;;;;5.15;4.65;;;16.80;99.90;;;17.28;100.00;100556.00;3617132;22;104753;-92
2021/07/12 04:17:48;;;;;;;5.60;4.47;;;17.00;99.90;;;17.26;100.00;100544.53;3693378;22;107902;-92
2021/07/12 04:20:24;;;;;;;5.80;3.90;;;17.00;99.90;;;17.18;100.00;100540.91;2830125;22;106720;-92
2021/07/12 04:25:25;;;;;;;7.85;4.90;;;17.10;99.90;;;17.25;100.00;100546.41;3344398;22;104177;-92
2021/07/12 04:27:57;;;;;;;6.20;4.65;;;18.20;99.90;;;17.23;100.00;100543.88;3670189;22;105274;-92
2021/07/12 04:30:27;;;;;;;5.93;4.50;;;16.20;99.90;;;17.19;100.00;100537.19;3666809;22;105297;-93
2021/07/12 04:32:55;;;;;;;3.60;3.30;;;18.30;99.90;;;17.18;100.00;100530.09;2216795;22;107335;-92
2021/07/12 04:35:23;;;;;;;5.18;4.45;;;17.80;99.90;;;17.16;100.00;100536.75;3749705;22;104689;-91
2021/07/12 04:37:51;;;;;;;4.65;4.15;;;18.30;99.90;;;17.36;100.00;100537.75;3167135;22;105003;-91
2021/07/12 04:40:25;;;;;;;6.50;4.88;;;17.20;99.90;;;17.40;100.00;100538.19;3639048;22;105479;-93
2021/07/12 04:45:58;;;;;;;7.38;3.97;;;17.10;99.90;;;17.29;100.00;100533.31;3427335;22;107200;-92
2021/07/12 04:48:40;;;;;;;5.57;3.88;;;17.30;99.90;;;17.28;100.00;100529.78;2614805;22;107452;-91
2021/07/12 04:51:10;;;;;;;5.45;4.10;;;18.30;99.90;;;17.41;100.00;100520.94;3475613;22;106777;31
2021/07/12 04:53:41;;;;;;;4.05;3.60;;;16.90;99.90;;;17.48;100.00;100525.34;3717600;22;104426;-90
2021/07/12 04:56:11;;;;;;;4.28;3.88;;;17.50;99.90;;;17.51;100.00;100519.56;2551962;22;107018;31
2021/07/12 04:59:17;;;;;;;5.45;3.97;;;16.40;99.90;;;17.56;100.00;100519.78;3672956;22;106377;31
2021/07/12 05:01:56;;;;;;;4.13;3.72;;;18.40;99.90;;;17.55;100.00;100518.13;3492865;22;106053;31
2021/07/12 05:04:23;;;;;;;6.05;4.03;;;18.60;99.90;;;17.48;100.00;100521.81;2092539;22;109144;-91
2021/07/12 05:06:52;;;;;;;5.10;4.47;;;17.50;99.90;;;17.51;100.00;100521.41;3708880;22;104031;31
2021/07/12 05:11:47;;;;;;;6.15;3.78;;;17.60;99.90;;;17.63;100.00;100524.41;3749324;22;104570;-89
2021/07/12 05:14:14;;;;;;;6.60;4.03;;;17.60;99.90;;;17.75;100.00;100529.09;2929458;22;107552;-88
2021/07/12 05:16:41;;;;;;;4.10;3.55;;;17.70;99.90;;;17.79;100.00;100530.41;3079200;22;110032;-88
2021/07/12 05:19:16;;;;;;;5.35;3.97;;;17.70;99.90;;;17.87;100.00;100530.22;2577754;22;107761;-94
2021/07/12 05:22:06;;;;;;;3.75;3.30;;;17.80;99.90;;;17.82;100.00;100524.56;1889063;22;106490;-89
2021/07/12 05:25:12;;;;;;;4.90;3.92;;;18.80;99.90;;;17.86;100.00;100525.00;1997654;22;107849;-91
2021/07/12 05:27:57;;;;;;;3.67;3.38;;;17.90;99.90;;;17.93;100.00;100526.69;3703508;22;107187;-89
2021/07/12 05:31:03;;;;;;;5.82;3.28;;;17.90;99.90;;;18.05;100.00;100531.56;3644543;22;105099;-90
2021/07/12 05:34:01;;;;;;;4.40;3.38;;;19.00;99.90;;;18.17;100.00;100540.81;3184493;22;107723;-89
2021/07/12 05:36:30;;;;;;;3.97;3.33;;;18.00;99.90;;;18.16;100.00;100526.41;3063443;22;106810;-91
2021/07/12 05:39:35;;;;;;;5.03;3.80;;;18.70;99.90;;;18.30;100.00;100532.69;3623654;22;105954;-91
2021/07/12 05:42:11;;;;;;;6.50;4.85;;;18.10;99.90;;;18.14;100.00;100533.06;3172278;22;106429;-89
2021/07/12 05:45:18;;;;;;;4.55;3.97;;;18.00;99.90;;;18.18;100.00;100534.31;3059172;22;107338;-90
2021/07/12 05:47:55;;;;;;;5.22;4.18;;;18.10;99.90;;;18.13;100.00;100528.69;3066975;22;107487;-89
2021/07/12 05:50:45;;;;;;;4.13;3.17;;;19.10;99.90;;;18.20;100.00;100533.09;3149766;22;106196;-91
2021/07/12 05:53:14;;;;;;;6.00;3.78;;;18.20;99.90;;;18.28;100.00;100526.69;2259383;22;105524;-89
2021/07/12 05:55:43;;;;;;;4.57;3.80;;;17.90;99.90;;;18.26;100.00;100534.16;2473844;22;106543;-89
2021/07/12 05:58:45;;;;;;;4.43;3.28;;;19.30;99.90;;;18.20;100.00;100530.38;3636687;22;107183;-89
2021/07/12 06:01:44;;;;;;;4.03;3.05;;;18.30;99.90;;;18.34;100.00;100517.72;2974218;22;105614;-89
2021/07/12 06:04:13;;;;;;;5.05;3.67;;;18.50;99.90;;;18.35;100.00;100523.97;2607546;22;107414;-90
2021/07/12 06:06:44;;;;;;;4.00;3.63;;;18.30;99.90;;;18.41;100.00;100517.75;3776744;22;104457;-90
2021/07/12 06:09:13;;;;;;;4.35;3.95;;;18.30;99.90;;;18.36;100.00;100520.22;3392296;22;107459;31
2021/07/12 06:11:41;;;;;;;5.43;4.25;;;19.40;99.90;;;18.28;100.00;100526.69;2819490;22;107192;-89
2021/07/12 06:14:10;;;;;;;5.22;4.10;;;18.40;99.90;;;18.42;100.00;100525.66;3408307;22;105820;-90
2021/07/12 06:19:29;;;;;;;3.85;2.85;;;18.30;99.90;;;18.37;100.00;100508.34;2533446;22;107354;-89
2021/07/12 06:21:56;;;;;;;5.90;4.10;;;18.30;99.90;;;18.41;100.00;100515.88;2906823;22;107228;-86
2021/07/12 06:24:24;;;;;;;5.13;4.20;;;19.40;99.90;;;18.36;100.00;100496.69;3414315;22;107093;-88
2021/07/12 06:26:52;;;;;;;8.30;4.55;;;18.30;99.90;;;18.38;100.00;100497.31;2664035;22;106589;-88
2021/07/12 06:29:21;;;;;;;5.85;4.07;;;18.40;99.90;;;18.50;100.00;100489.44;2946144;22;106813;-91
2021/07/12 06:31:49;;;;;;;5.13;3.83;;;19.40;99.90;;;18.41;100.00;100496.09;2687651;22;107531;-88
2021/07/12 06:34:16;;;;;;;3.15;2.90;;;19.40;99.90;;;18.58;100.00;100483.84;2539521;22;107055;-87
2021/07/12 06:36:49;;;;;;;6.57;4.32;;;19.60;99.90;;;18.77;100.00;100477.63;3739794;22;104408;-91
2021/07/12 06:39:18;;;;;;;6.80;4.15;;;19.60;99.90;;;18.85;100.00;100472.00;3007077;22;107427;-88
2021/07/12 06:41:45;;;;;;;5.28;4.10;;;18.70;99.90;;;18.67;100.00;100467.19;2607216;22;107369;-86
2021/07/12 06:44:13;;;;;;;4.68;4.13;;;19.30;99.90;;;18.82;100.00;100468.88;2952230;22;108422;-86
2021/07/12 06:46:51;;;;;;;5.40;4.28;;;18.90;99.90;;;19.02;100.00;100470.56;3472143;22;107472;31
2021/07/12 06:50:00;;;;;;;6.43;4.35;;;20.00;99.90;;;18.98;100.00;100457.63;3001422;22;106809;31
2021/07/12 06:52:40;;;;;;;4.32;3.92;;;19.80;99.90;;;19.40;100.00;100461.78;3587253;22;106918;-92
2021/07/12 06:55:09;;;;;;;5.32;3.60;;;19.20;99.90;;;19.32;100.00;100448.41;2922245;22;106591;-92
2021/07/12 06:57:36;;;;;;;4.72;3.70;;;19.30;99.90;;;19.10;100.00;100442.38;3638492;22;107432;-87
2021/07/12 07:00:39;;;;;;;3.67;3.33;;;19.40;99.90;;;19.00;100.00;100423.00;3618899;22;105467;-87
2021/07/12 07:03:51;;;;;;;4.68;2.85;;;19.50;99.90;;;19.05;100.00;100416.94;2869727;22;106129;-86
2021/07/12 07:06:27;;;;;;;3.80;3.35;;;19.50;99.90;;;19.38;100.00;100404.16;3582814;22;106629;-93
2021/07/12 07:08:56;;;;;;;3.97;3.35;;;20.50;99.90;;;19.38;100.00;100394.16;3628337;22;105219;-87
2021/07/12 07:11:23;;;;;;;4.78;2.92;;;19.60;99.90;;;19.52;100.00;100388.72;3681584;22;107592;-93
2021/07/12 07:14:26;;;;;;;3.88;3.20;;;20.50;99.90;;;19.27;100.00;100388.53;3497601;22;105424;-87
2021/07/12 07:17:40;;;;;;;3.63;2.72;;;20.50;99.90;;;19.44;100.00;100372.63;3715061;22;105846;-91
2021/07/12 07:20:17;;;;;;;4.32;2.97;;;20.00;99.90;;;19.76;100.00;100365.44;3484110;22;107973;-88
2021/07/12 07:23:22;;;;;;;2.67;2.30;;;20.10;99.90;;;19.64;100.00;100355.25;3528567;22;107170;31
2021/07/12 07:26:37;;;;;;;2.90;2.08;;;21.30;99.90;;;19.54;100.00;100335.03;3688197;22;106406;-87
2021/07/12 07:29:13;;;;;;;3.38;2.60;;;20.30;99.90;;;19.61;100.00;100314.13;3668663;22;104589;-84
2021/07/12 07:31:40;;;;;;;2.75;2.35;;;21.30;99.90;;;19.45;100.00;100307.28;3577166;22;107127;-86
2021/07/12 07:34:07;;;;;;;2.67;1.90;;;21.40;99.90;;;19.58;100.00;100303.69;3531541;22;104894;-85
2021/07/12 07:36:56;;;;;;;2.58;2.22;;;20.40;99.90;;;19.81;100.00;100301.28;3478371;22;105009;-83
2021/07/12 07:39:23;;;;;;;2.80;1.88;;;20.40;99.90;;;20.05;100.00;100294.22;3598250;22;101100;-86
2021/07/12 07:41:53;;;;;;;2.83;2.15;;;20.50;99.90;;;20.04;100.00;100296.09;3584570;22;106834;-84
2021/07/12 07:44:23;;;;;;;1.92;1.67;;;20.60;99.90;;;20.11;100.00;100284.38;3615492;22;104249;-85
2021/07/12 07:46:50;;;;;;;2.08;1.42;;;21.70;99.90;;;20.31;100.00;100269.56;3675032;22;104181;-84
2021/07/12 07:49:18;;;;;;;4.70;2.55;;;20.80;99.90;;;20.55;100.00;100269.81;3689580;22;105078;-86
2021/07/12 07:51:46;;;;;;;2.17;1.98;;;20.90;99.90;;;20.70;100.00;100262.97;2674198;22;106497;31
2021/07/12 07:54:50;;;;;;;1.98;1.77;;;21.10;99.90;;;20.93;100.00;100251.44;3179917;22;1217599;-90
2021/07/12 07:58:05;;;;;;;2.15;1.90;;;21.30;99.90;;;20.23;100.00;100247.28;3546332;39;101652;-85
2021/07/12 08:01:17;;;;;;;2.92;2.30;;;21.50;99.90;;;20.86;100.00;100236.25;3535492;39;99893;-85
2021/07/12 08:04:29;;;;;;;2.55;1.95;;;21.70;99.90;;;20.80;100.00;100218.94;3572523;22;101623;-84
2021/07/12 08:07:41;;;;;;;1.67;1.58;;;21.90;99.90;;;21.00;100.00;100216.00;3582350;22;103272;-85
2021/07/12 08:10:18;;;;;;;4.03;2.17;;;22.20;99.90;;;22.22;100.00;100201.06;3428555;22;105640;-91
2021/07/12 08:12:54;;;;;;;2.40;1.73;;;23.40;99.90;;;21.14;100.00;100198.47;3173383;22;103961;-90
2021/07/12 08:15:21;;;;;;;1.55;1.45;;;22.80;99.90;;;21.02;100.00;100201.09;3535168;39;103469;-89
2021/07/12 08:20:17;;;;;;;1.00;0.88;;;23.20;99.90;;;20.95;100.00;100197.63;3521726;22;107289;-95
2021/07/12 08:22:47;;;;;;;1.60;1.45;;;22.60;99.90;;;21.19;100.00;100200.50;3596579;22;101059;-93
2021/07/12 08:25:15;;;;;;;1.77;1.33;;;23.40;99.90;;;21.66;100.00;100199.63;2863494;22;105672;-84
2021/07/12 08:27:42;;;;;;;2.40;1.73;;;23.50;99.90;;;21.82;100.00;100198.13;3630821;22;105974;-85
2021/07/12 08:30:16;;;;;;;1.40;1.23;;;24.40;99.90;;;21.12;100.00;100195.13;3591596;22;101297;-93
2021/07/12 08:32:44;;;;;;;1.77;1.33;;;23.70;99.90;;;20.73;100.00;100193.72;3670776;22;101778;-89
2021/07/12 08:35:14;;;;;;;1.10;1.00;;;24.10;99.90;;;21.52;100.00;100195.44;3596547;22;101943;-84
2021/07/12 08:37:41;;;;;;;1.85;1.30;;;23.70;99.90;;;21.73;100.00;100181.31;3607781;22;104163;-92
2021/07/12 08:40:11;;;;;;;1.83;1.30;;;23.80;99.90;;;21.88;100.00;100182.75;3555371;22;103362;-88
2021/07/12 08:43:17;;;;;;;1.23;1.13;;;23.80;99.90;;;22.41;100.00;100185.41;3598602;22;111121;-85
2021/07/12 08:45:54;;;;;;;3.80;1.63;;;24.00;99.90;;;21.81;100.00;100191.03;3577257;22;105694;-85
2021/07/12 08:48:21;;;;;;;1.35;1.20;;;25.10;99.90;;;22.00;100.00;100191.81;3538819;39;103340;-84
2021/07/12 08:51:25;;;;;;;2.20;1.57;;;25.20;99.90;;;21.99;100.00;100195.59;3561940;22;106059;-93
2021/07/12 08:54:01;;;;;;;1.67;1.58;;;24.40;99.90;;;21.73;100.00;100192.19;3608223;22;103785;-92
2021/07/12 08:56:28;;;;;;;2.15;1.38;;;24.40;99.90;;;22.00;100.00;100176.28;3540333;22;108044;-88
2021/07/12 08:58:56;;;;;;;1.27;1.13;;;24.40;99.90;;;22.07;100.00;100157.09;3685719;22;104364;-84
2021/07/12 09:01:24;;;;;;;1.77;1.40;;;24.60;99.90;;;21.58;100.00;100166.47;3562830;22;101686;-84
2021/07/12 09:03:52;;;;;;;1.38;1.13;;;24.50;99.90;;;21.73;100.00;100154.06;3547357;39;102179;-84
2021/07/12 09:06:21;;;;;;;1.48;1.38;;;24.60;99.90;;;21.80;100.00;100164.84;3582280;22;101068;-93
2021/07/12 09:08:53;;;;;;;1.42;1.33;;;24.60;99.90;;;21.90;100.00;100167.81;3433173;22;104942;-85
2021/07/12 09:11:27;;;;;;;1.77;0.98;;;24.70;99.90;;;22.77;100.00;100160.59;3486666;22;106613;-91
2021/07/12 09:14:03;;;;;;;0.82;0.75;;;24.70;99.90;;;21.98;100.00;100148.41;3675847;22;103772;31
2021/07/12 09:16:39;;;;;;;2.22;1.52;;;25.80;99.90;;;21.49;100.00;100147.75;3586864;22;105455;-83
2021/07/12 09:19:24;;;;;;;4.22;1.77;;;24.70;99.90;;;21.25;100.00;100153.34;3517468;22;101844;-84
2021/07/12 09:21:56;;;;;;;2.38;1.50;;;25.60;99.90;;;21.45;100.00;100159.31;3562511;22;102794;-90
2021/07/12 09:24:28;;;;;;;2.03;1.40;;;25.40;99.90;;;22.03;100.00;100154.00;3543942;39;100223;-83
2021/07/12 09:27:00;;;;;;;1.13;1.02;;;24.50;99.90;;;21.95;100.00;100146.16;3550923;39;101002;-90
2021/07/12 09:29:30;;;;;;;1.92;1.40;;;24.60;99.90;;;21.73;100.00;100145.06;3737279;22;104745;-86
2021/07/12 09:32:00;;;;;;;1.58;1.15;;;25.60;99.90;;;21.56;100.00;100154.97;3541453;22;105695;-90
2021/07/12 09:34:27;;;;;;;1.48;1.15;;;25.60;99.90;;;22.23;100.00;100144.66;3562344;22;100649;-84
2021/07/12 09:36:55;;;;;;;1.20;1.10;;;24.80;99.90;;;22.35;100.00;100137.31;3550126;39;100822;-89
2021/07/12 09:39:33;;;;;;;1.90;1.48;;;24.80;99.90;;;21.79;100.00;100139.50;3449337;22;105673;-86
2021/07/12 09:42:09;;;;;;;1.38;1.27;;;25.80;99.90;;;22.11;100.00;100139.22;2941623;22;107498;31
2021/07/12 09:44:42;;;;;;;1.63;1.52;;;24.90;99.90;;;21.85;100.00;100135.03;3275355;22;105852;-83
2021/07/12 09:47:16;;;;;;;1.60;1.50;;;25.00;99.90;;;21.99;100.00;100138.38;3399391;22;107645;-90
2021/07/12 09:49:45;;;;;;;2.92;0.93;;;25.20;99.90;;;22.42;100.00;100136.09;3630658;22;110677;-84
2021/07/12 09:52:57;;;;;;;1.65;1.48;;;25.10;99.90;;;22.03;100.00;100142.28;3338133;22;108177;-83
2021/07/12 09:56:18;;;;;;;2.05;1.40;;;25.40;99.90;;;21.68;100.00;100144.94;2828500;22;107690;-88
2021/07/12 09:59:30;;;;;;;1.52;1.33;;;25.10;99.90;;;21.53;100.00;100148.09;3113115;22;107920;-89
2021/07/12 10:02:51;;;;;;;2.30;1.45;;;25.20;99.90;;;22.58;100.00;100137.28;3591819;22;108233;-86
2021/07/12 10:06:04;;;;;;;2.70;1.70;;;24.60;99.90;;;21.93;100.00;100128.38;3547959;39;101041;-90
2021/07/12 10:08:42;;;;;;;1.10;1.00;;;25.40;99.90;;;21.96;100.00;100117.84;3395169;22;104741;31
2021/07/12 10:11:09;;;;;;;1.92;1.52;;;24.00;99.90;;;21.92;100.00;100124.84;3595779;22;102019;-88
2021/07/12 10:13:36;;;;;;;2.05;1.63;;;24.70;99.90;;;23.28;100.00;100116.03;3519305;22;104873;-88
2021/07/12 10:16:40;;;;;;;1.33;1.00;;;25.70;99.90;;;23.29;100.00;100103.22;3455093;22;107193;-82
2021/07/12 10:19:54;;;;;;;1.85;1.40;;;25.30;99.90;;;25.14;100.00;100090.88;3555387;39;101792;-82
2021/07/12 10:23:07;;;;;;;1.67;1.58;;;26.10;99.90;;;23.57;100.00;100089.56;3542488;39;102834;-87
2021/07/12 10:26:19;;;;;;;1.38;1.08;;;26.40;99.90;;;24.17;100.00;100090.72;3559604;39;101337;-87
2021/07/12 10:29:11;;;;;;;1.45;1.35;;;26.70;99.90;;;24.79;100.00;100088.56;3596037;22;105386;-87
2021/07/12 10:32:42;;;;;;;1.52;1.20;;;27.70;99.90;;;24.97;100.00;100071.00;3594689;22;105832;-87
2021/07/12 10:36:09;;;;;;;1.55;1.45;;;27.40;98.80;;;25.13;100.00;100063.75;3509203;40;103569;-84
2021/07/12 10:39:21;;;;;;;1.98;0.90;;;27.90;97.40;;;25.55;100.00;100058.41;3575551;22;104745;-86
2021/07/12 10:42:54;;;;;;;1.83;1.50;;;28.50;96.10;;;26.69;100.00;100044.00;3539239;39;100830;-83
2021/07/12 10:46:30;;;;;;;1.10;1.00;;;29.00;95.60;;;25.48;100.00;100033.13;3526334;39;100700;-85
2021/07/12 10:49:39;;;;;;;3.42;1.55;;;29.60;93.60;;;23.82;100.00;100050.06;3585151;22;101135;-82
2021/07/12 10:52:07;;;;;;;1.67;1.50;;;29.80;82.30;;;24.29;100.00;100053.19;3580980;22;104958;-86
2021/07/12 10:54:59;;;;;;;1.30;1.05;;;29.60;83.60;;;24.21;100.00;100053.63;3543201;39;100263;-84
2021/07/12 10:57:26;;;;;;;1.67;1.35;;;29.20;82.40;;;23.80;100.00;100053.03;3547977;39;100214;-87
2021/07/12 11:00:08;;;;;;;1.35;1.23;;;28.70;81.60;;;23.45;100.00;100068.84;3559261;22;102581;-83
2021/07/12 11:02:35;;;;;;;1.73;1.63;;;29.00;83.00;;;23.02;100.00;100067.53;3512749;39;101188;-83
2021/07/12 11:05:05;;;;;;;1.42;1.30;;;27.70;84.30;;;23.06;100.00;100063.25;3519351;39;100500;-83
2021/07/12 11:07:41;;;;;;;6.47;1.15;;;27.30;86.40;;;23.26;100.00;100070.94;3525718;39;101036;-85
2021/07/12 11:10:22;;;;;;;2.47;1.42;;;27.00;89.60;;;22.95;100.00;100066.03;3576908;22;105455;-82
2021/07/12 11:12:58;;;;;;;3.55;1.65;;;27.20;91.10;;;23.01;100.00;100078.69;3592521;22;106320;-83
2021/07/12 11:15:37;;;;;;;6.18;1.48;;;26.20;91.70;;;22.86;100.00;100076.50;3582442;22;104612;-85
2021/07/12 11:18:10;;;;;;;2.13;1.48;;;26.00;92.60;;;22.38;100.00;100082.28;3613512;22;102943;-87
2021/07/12 11:20:56;;;;;;;1.70;1.48;;;25.70;93.30;;;22.66;100.00;100079.63;3521951;22;100250;-83
2021/07/12 11:24:25;;;;;;;1.58;1.48;;;25.50;94.60;;;23.04;100.00;100067.28;3584841;22;101693;-86